Time;durP1;ratioP1;P1;durP2;ratioP2;P2;SDS_P1;SDS_P2;PMS_P1;PMS_P2;Temp;Humidity;BMP_temperature;BMP_pressure;BME280_temperature;BME280_humidity;BME280_pressure;Samples;Min_cycle;Max_cycle;Signal;HPM_P1;HPM_P2
2023/01/27 02:25:35;;;;;;;80.70;24.70;;;;;;;-8.83;100.00;101739.04;103613;1283;613718;-79
2023/01/27 02:28:06;;;;;;;66.70;25.70;;;;;;;-8.53;100.00;101735.06;103515;1282;161559;-79
2023/01/27 02:30:33;;;;;;;64.60;24.20;;;;;;;-8.44;100.00;101728.14;106791;1281;60206;-76
2023/01/27 02:32:58;;;;;;;63.90;21.80;;;;;;;-8.36;100.00;101728.79;107275;1282;58061;-76
2023/01/27 02:35:35;;;;;;;63.00;22.40;;;;;;;-8.29;100.00;101724.94;107309;1280;58134;-76
2023/01/27 02:38:02;;;;;;;61.70;21.00;;;;;;;-8.21;100.00;101723.84;107256;1280;73366;-79
2023/01/27 02:40:29;;;;;;;57.80;21.80;;;;;;;-8.15;100.00;101721.54;107295;1281;62593;-77
2023/01/27 02:42:58;;;;;;;59.90;21.50;;;;;;;-8.13;100.00;101729.56;107338;1281;58367;-77
2023/01/27 02:45:24;;;;;;;63.90;24.90;;;;;;;-8.11;100.00;101729.61;107430;1282;72005;-77
2023/01/27 02:47:50;;;;;;;59.60;24.50;;;;;;;-8.10;100.00;101727.83;107262;1280;58259;-76
2023/01/27 02:50:16;;;;;;;54.80;19.70;;;;;;;-8.08;100.00;101731.86;106943;1281;58555;-77
2023/01/27 02:52:42;;;;;;;61.50;20.20;;;;;;;-8.06;100.00;101733.75;107443;1281;58357;-77
2023/01/27 02:55:08;;;;;;;48.20;19.10;;;;;;;-8.05;100.00;101737.02;106859;1283;58216;-78
2023/01/27 02:57:33;;;;;;;48.70;17.50;;;;;;;-8.04;100.00;101733.80;107361;1280;58341;-77
2023/01/27 02:59:59;;;;;;;44.20;17.30;;;;;;;-8.04;100.00;101728.73;107365;1281;58141;-77
2023/01/27 03:02:29;;;;;;;43.60;16.90;;;;;;;-8.02;100.00;101721.64;107278;1280;62900;-77
2023/01/27 03:04:55;;;;;;;44.40;16.50;;;;;;;-8.01;100.00;101721.34;107306;1281;60928;-77
2023/01/27 03:07:21;;;;;;;43.80;17.10;;;;;;;-7.99;100.00;101720.18;107356;1280;72175;-78
2023/01/27 03:09:46;;;;;;;45.90;16.90;;;;;;;-7.98;100.00;101719.64;106982;1281;58267;-77
2023/01/27 03:12:21;;;;;;;43.20;17.20;;;;;;;-7.97;100.00;101717.77;107291;1280;58118;-78
2023/01/27 03:20:21;;;;;;;43.10;16.20;;;;;;;-7.92;100.00;101723.84;107324;1281;71732;-77
2023/01/27 03:22:47;;;;;;;45.50;16.20;;;;;;;-7.93;100.00;101725.31;106952;1281;58121;-77
2023/01/27 03:25:13;;;;;;;37.50;15.30;;;;;;;-7.96;100.00;101727.64;107304;1281;58137;-78
2023/01/27 03:27:38;;;;;;;41.10;15.70;;;;;;;-8.01;100.00;101728.86;107283;1281;58157;-77
2023/01/27 03:30:06;;;;;;;38.90;14.10;;;;;;;-8.07;100.00;101726.02;107318;1281;58551;-77
2023/01/27 03:32:31;;;;;;;39.10;14.60;;;;;;;-8.11;100.00;101725.11;106871;1281;58357;-78
2023/01/27 03:34:57;;;;;;;37.60;15.10;;;;;;;-8.14;100.00;101720.25;107248;1281;58236;-77
2023/01/27 03:48:22;;;;;;;43.00;15.00;;;;;;;-8.30;100.00;101713.00;107261;1282;73350;-78
2023/01/27 03:50:52;;;;;;;41.40;15.00;;;;;;;-8.32;100.00;101715.56;107265;1281;58145;-77
2023/01/27 03:53:21;;;;;;;46.10;15.70;;;;;;;-8.35;100.00;101720.36;107303;1282;61642;-77
2023/01/27 03:55:47;;;;;;;67.70;17.00;;;;;;;-8.38;100.00;101718.45;107260;1281;61178;-77
2023/01/27 03:58:20;;;;;;;44.70;16.60;;;;;;;-8.38;100.00;101721.11;107248;1281;58308;-77
2023/01/27 04:00:48;;;;;;;56.50;20.00;;;;;;;-8.39;100.00;101721.73;107279;1281;73452;-78
2023/01/27 04:08:46;;;;;;;70.40;26.10;;;;;;;-8.41;100.00;101722.73;107308;1280;59950;-78
2023/01/27 04:14:00;;;;;;;49.60;19.50;;;;;;;-8.38;100.00;101723.92;107297;1280;72314;-78
2023/01/27 04:16:27;;;;;;;50.20;18.50;;;;;;;-8.37;100.00;101723.98;106921;1282;72581;-77
2023/01/27 04:18:54;;;;;;;73.10;25.10;;;;;;;-8.37;100.00;101728.17;107259;1281;61636;-78
2023/01/27 04:21:19;;;;;;;56.60;22.10;;;;;;;-8.35;100.00;101721.58;107277;1280;58104;-77
2023/01/27 04:23:45;;;;;;;62.40;22.40;;;;;;;-8.31;100.00;101720.44;107284;1280;58112;-78
2023/01/27 04:26:10;;;;;;;68.10;26.70;;;;;;;-8.26;100.00;101727.20;107257;1282;58283;-78
2023/01/27 04:28:36;;;;;;;83.20;27.10;;;;;;;-8.18;100.00;101734.15;107250;1281;58114;-77
2023/01/27 04:31:02;;;;;;;67.40;24.70;;;;;;;-8.08;100.00;101746.14;107038;1281;58471;-78
2023/01/27 04:33:28;;;;;;;71.00;24.40;;;;;;;-7.96;100.00;101747.02;107265;1280;72907;-77
2023/01/27 04:35:53;;;;;;;81.60;28.10;;;;;;;-7.84;100.00;101741.95;107263;1281;58302;-78
2023/01/27 04:38:19;;;;;;;77.10;26.60;;;;;;;-7.67;100.00;101745.29;107255;1281;58073;-78
2023/01/27 04:40:44;;;;;;;76.00;26.30;;;;;;;-7.57;100.00;101744.34;107302;1282;58266;-78
2023/01/27 04:43:10;;;;;;;77.90;29.20;;;;;;;-7.47;100.00;101741.70;107284;1281;58055;-78
2023/01/27 04:45:35;;;;;;;77.60;25.50;;;;;;;-7.35;100.00;101743.39;107285;1282;58105;-78
2023/01/27 04:48:01;;;;;;;72.10;23.90;;;;;;;-7.23;100.00;101743.67;106782;1284;58720;-79
2023/01/27 04:50:26;;;;;;;77.00;23.30;;;;;;;-7.10;100.00;101740.30;106866;1284;58873;-77
2023/01/27 04:52:52;;;;;;;80.80;24.90;;;;;;;-7.00;100.00;101739.67;106839;1284;58436;-77
2023/01/27 04:55:17;;;;;;;71.60;23.60;;;;;;;-6.91;100.00;101741.81;106639;1285;58264;-78
2023/01/27 04:57:43;;;;;;;70.10;24.70;;;;;;;-6.81;100.00;101738.65;106622;1285;58398;-78
2023/01/27 05:00:10;;;;;;;76.60;25.10;;;;;;;-6.72;100.00;101740.89;106819;1284;58480;-78
2023/01/27 05:02:35;;;;;;;75.50;22.10;;;;;;;-6.63;100.00;101742.48;106618;1285;60989;-77
2023/01/27 05:05:03;;;;;;;68.30;23.20;;;;;;;-6.57;100.00;101743.17;106575;1285;58277;-79
2023/01/27 05:07:30;;;;;;;69.10;23.10;;;;;;;-6.51;100.00;101746.61;106813;1285;74509;-77
2023/01/27 05:09:55;;;;;;;70.00;21.50;;;;;;;-6.44;100.00;101751.07;106813;1284;73653;-77
2023/01/27 05:12:21;;;;;;;66.90;23.00;;;;;;;-6.41;100.00;101758.20;106828;1284;58579;-78
2023/01/27 05:14:46;;;;;;;65.40;22.80;;;;;;;-6.33;100.00;101759.66;106473;1285;58296;-78
2023/01/27 05:17:12;;;;;;;68.60;23.70;;;;;;;-6.24;100.00;101761.94;106790;1284;58051;-77
2023/01/27 05:19:37;;;;;;;61.90;21.80;;;;;;;-6.21;100.00;101762.03;106704;1282;58362;-78
2023/01/27 05:22:03;;;;;;;61.70;22.50;;;;;;;-6.15;100.00;101760.92;107255;1280;58183;-78
2023/01/27 05:24:28;;;;;;;64.20;22.80;;;;;;;-6.08;100.00;101762.22;106942;1282;58297;-77
2023/01/27 05:26:54;;;;;;;64.50;23.10;;;;;;;-6.01;100.00;101759.20;107305;1280;58212;-78
2023/01/27 05:29:19;;;;;;;65.60;23.50;;;;;;;-5.96;100.00;101751.31;107261;1281;58300;-78
2023/01/27 05:31:45;;;;;;;66.80;22.40;;;;;;;-5.91;100.00;101746.01;107275;1281;58201;-77
2023/01/27 05:34:10;;;;;;;68.00;22.60;;;;;;;-5.85;100.00;101745.53;106953;1280;58210;-78
2023/01/27 05:36:36;;;;;;;77.60;24.00;;;;;;;-5.81;100.00;101742.18;107245;1281;58242;-77
2023/01/27 05:39:01;;;;;;;71.80;23.90;;;;;;;-5.74;100.00;101747.76;106956;1282;58142;-78
2023/01/27 05:41:31;;;;;;;75.10;24.40;;;;;;;-5.70;100.00;101741.99;107261;1280;58126;-77
2023/01/27 05:43:57;;;;;;;75.30;25.60;;;;;;;-5.60;100.00;101743.27;107203;1281;62614;-77
2023/01/27 05:46:25;;;;;;;75.70;24.80;;;;;;;-5.56;100.00;101745.54;107252;1281;58139;-78
2023/01/27 05:48:53;;;;;;;62.70;21.60;;;;;;;-5.50;100.00;101743.69;106868;1281;73834;-78
2023/01/27 05:51:21;;;;;;;73.20;23.50;;;;;;;-5.41;100.00;101748.08;107057;1281;72337;-78
2023/01/27 05:53:47;;;;;;;68.20;24.10;;;;;;;-5.33;100.00;101750.49;107065;1281;73340;-78
2023/01/27 05:56:15;;;;;;;70.00;24.60;;;;;;;-5.23;100.00;101749.18;107268;1281;58299;-78
2023/01/27 05:58:41;;;;;;;79.10;25.70;;;;;;;-5.15;100.00;101747.63;107269;1280;59964;-79
2023/01/27 06:01:11;;;;;;;88.70;27.10;;;;;;;-5.10;100.00;101752.47;107269;1280;58020;-78
2023/01/27 06:03:37;;;;;;;90.90;26.40;;;;;;;-5.05;100.00;101755.99;107300;1281;74208;-78
2023/01/27 06:06:03;;;;;;;84.80;27.90;;;;;;;-4.96;100.00;101750.61;107251;1281;72463;-78
2023/01/27 06:08:29;;;;;;;96.10;27.20;;;;;;;-4.92;100.00;101744.98;107297;1281;58211;-77
2023/01/27 06:10:55;;;;;;;94.70;27.60;;;;;;;-4.86;100.00;101746.23;107275;1280;58000;-78
2023/01/27 06:13:22;;;;;;;97.80;28.30;;;;;;;-4.84;100.00;101743.56;106914;1282;58142;-78
2023/01/27 06:15:48;;;;;;;125.90;33.50;;;;;;;-4.82;100.00;101740.59;107269;1281;58068;-78
2023/01/27 06:18:15;;;;;;;106.60;32.00;;;;;;;-4.77;100.00;101739.34;107249;1280;58177;-77
2023/01/27 06:20:42;;;;;;;98.50;30.70;;;;;;;-4.72;100.00;101740.14;107273;1280;58468;-77
2023/01/27 06:23:09;;;;;;;95.50;29.30;;;;;;;-4.69;100.00;101728.61;107219;1282;58229;-78
2023/01/27 06:25:39;;;;;;;81.50;27.80;;;;;;;-4.63;100.00;101726.17;107036;1282;58108;-78
2023/01/27 06:28:06;;;;;;;95.00;26.70;;;;;;;-4.63;100.00;101731.44;107063;1282;74204;-77
2023/01/27 06:30:33;;;;;;;76.40;26.30;;;;;;;-4.57;100.00;101728.48;107016;1282;73364;-78
2023/01/27 06:32:59;;;;;;;98.10;28.80;;;;;;;-4.49;100.00;101724.63;106999;1282;61858;-78
2023/01/27 06:35:24;;;;;;;85.30;27.70;;;;;;;-4.44;100.00;101726.46;106754;1282;58294;-77
2023/01/27 06:37:50;;;;;;;88.80;28.20;;;;;;;-4.42;100.00;101718.56;107089;1283;58186;-78
2023/01/27 06:40:16;;;;;;;101.60;30.40;;;;;;;-4.36;100.00;101717.35;106751;1282;58641;-78
2023/01/27 06:42:43;;;;;;;110.00;28.70;;;;;;;-4.30;100.00;101716.62;107043;1282;58240;-78
2023/01/27 06:45:10;;;;;;;102.90;30.20;;;;;;;-4.24;100.00;101715.71;107054;1282;58179;-78
2023/01/27 06:47:36;;;;;;;96.80;29.30;;;;;;;-4.19;100.00;101715.86;107068;1282;58723;-77
2023/01/27 06:50:02;;;;;;;95.70;29.00;;;;;;;-4.11;100.00;101723.05;107105;1282;58545;-77
2023/01/27 06:52:27;;;;;;;89.80;28.60;;;;;;;-4.06;100.00;101723.17;107058;1282;58286;-77
2023/01/27 06:54:53;;;;;;;89.00;28.30;;;;;;;-4.01;100.00;101720.41;107060;1282;58215;-78
2023/01/27 06:57:18;;;;;;;90.90;26.90;;;;;;;-3.97;100.00;101723.20;106906;1282;58544;-77
2023/01/27 06:59:44;;;;;;;84.40;27.60;;;;;;;-3.96;100.00;101718.02;106886;1282;58291;-78
2023/01/27 07:02:12;;;;;;;92.10;27.20;;;;;;;-3.88;100.00;101713.64;107084;1282;58308;-78
2023/01/27 07:04:38;;;;;;;75.60;24.40;;;;;;;-3.85;100.00;101720.19;107080;1282;58365;-78
2023/01/27 11:07:53;;;;;;;44.20;15.00;;;;;;;0.84;100.00;101499.32;103348;1288;616188;-79
2023/01/27 11:10:21;;;;;;;55.30;16.90;;;;;;;1.05;100.00;101494.82;103619;1290;119250;-79
2023/01/27 11:12:52;;;;;;;42.90;13.80;;;;;;;1.15;100.00;101496.02;103959;1283;61437;-78
2023/01/27 15:28:42;;;;;;;87.30;29.80;;;;;;;-0.89;100.00;101408.85;102949;1291;601186;-78
2023/01/27 15:31:14;;;;;;;77.80;26.60;;;;;;;-0.93;100.00;101410.83;102842;1297;62124;-77
2023/01/27 15:33:55;;;;;;;55.20;20.50;;;;;;;-0.99;100.00;101414.14;102943;1294;60715;-80
2023/01/27 15:36:26;;;;;;;54.40;21.40;;;;;;;-1.05;100.00;101410.16;102914;1291;71228;-79
2023/01/27 15:39:10;;;;;;;74.90;25.50;;;;;;;-1.09;100.00;101405.35;103095;1297;74413;-80
2023/01/27 15:41:37;;;;;;;72.90;24.20;;;;;;;-1.20;100.00;101405.05;102925;1288;261728;-80
2023/01/27 15:44:19;;;;;;;74.10;22.80;;;;;;;-1.29;100.00;101402.02;102972;1288;62187;-80
2023/01/27 15:46:48;;;;;;;62.70;20.30;;;;;;;-1.39;100.00;101406.75;102815;1288;60396;-80
2023/01/27 15:49:38;;;;;;;50.60;19.50;;;;;;;-1.45;100.00;101411.81;102876;1288;73781;-80
2023/01/27 15:52:19;;;;;;;61.40;20.10;;;;;;;-1.51;100.00;101418.08;102548;1297;74419;-80
2023/01/27 15:54:52;;;;;;;60.00;21.60;;;;;;;-1.57;100.00;101413.00;102788;1292;73081;-80
2023/01/27 16:00:49;;;;;;;51.50;18.80;;;;;;;-1.62;100.00;101414.11;102775;1295;600986;-78
2023/01/27 20:30:31;;;;;;;60.60;20.00;;;;;;;-4.66;100.00;101349.85;103626;1283;613224;-79
2023/01/27 20:32:58;;;;;;;66.60;19.80;;;;;;;-4.48;100.00;101353.64;103845;1280;126197;-79
2023/01/27 20:38:24;;;;;;;76.30;20.60;;;;;;;-4.38;100.00;101345.66;103492;1285;601053;-79
2023/01/27 20:40:50;;;;;;;66.90;19.90;;;;;;;-4.40;100.00;101341.86;103409;1290;59356;-76
2023/01/27 20:46:47;;;;;;;68.60;21.40;;;;;;;-4.43;100.00;101345.68;103590;1286;600905;-77
2023/01/27 20:52:36;;;;;;;66.20;21.70;;;;;;;-4.42;100.00;101344.48;103557;1283;600989;-77
2023/01/27 20:55:04;;;;;;;79.80;21.90;;;;;;;-4.42;100.00;101344.13;103709;1283;60367;-77
2023/01/27 20:57:30;;;;;;;86.10;23.50;;;;;;;-4.40;100.00;101337.35;103533;1283;60397;-77
2023/01/27 20:59:57;;;;;;;62.10;21.70;;;;;;;-4.41;100.00;101342.27;103667;1283;60456;-77
2023/01/27 21:02:25;;;;;;;75.90;21.70;;;;;;;-4.41;100.00;101341.44;103681;1286;76265;-77
2023/01/27 21:04:52;;;;;;;62.10;20.90;;;;;;;-4.46;100.00;101334.84;103585;1283;73171;-77
2023/01/27 21:10:48;;;;;;;58.20;20.30;;;;;;;-4.54;100.00;101339.84;102806;1290;600937;-79
2023/01/27 21:13:13;;;;;;;59.80;19.40;;;;;;;-4.60;100.00;101337.73;103240;1295;60393;-77
2023/01/27 21:15:46;;;;;;;60.90;19.50;;;;;;;-4.65;100.00;101338.77;103018;1296;60478;-77
2023/01/27 21:18:11;;;;;;;64.00;21.50;;;;;;;-4.72;100.00;101330.80;103187;1292;73410;-77
2023/01/27 21:20:37;;;;;;;59.60;20.00;;;;;;;-4.79;100.00;101330.38;103193;1289;60332;-77
2023/01/27 21:23:02;;;;;;;62.00;21.60;;;;;;;-4.85;100.00;101330.81;103106;1294;60345;-77
2023/01/27 21:25:28;;;;;;;60.80;20.50;;;;;;;-4.90;100.00;101328.98;103254;1292;190930;-77
2023/01/27 21:27:54;;;;;;;74.00;20.90;;;;;;;-4.95;100.00;101324.41;106735;1286;58102;-78
2023/01/27 21:30:19;;;;;;;70.80;21.60;;;;;;;-5.00;100.00;101326.77;106500;1286;73670;-77
2023/01/27 21:32:45;;;;;;;79.20;24.60;;;;;;;-5.03;100.00;101323.67;106731;1286;58015;-78
2023/01/27 21:35:10;;;;;;;69.90;23.40;;;;;;;-5.01;100.00;101318.38;106682;1286;58154;-78
2023/01/27 21:37:37;;;;;;;69.40;23.80;;;;;;;-4.98;100.00;101317.10;106735;1286;58087;-79
2023/01/27 21:40:03;;;;;;;78.40;24.20;;;;;;;-4.97;100.00;101319.30;106727;1286;58142;-78
2023/01/27 21:45:14;;;;;;;74.70;23.10;;;;;;;-4.96;100.00;101316.80;106682;1286;70716;-79
2023/01/27 21:47:41;;;;;;;66.90;21.90;;;;;;;-4.94;100.00;101314.14;106499;1288;61218;-78
2023/01/27 21:50:09;;;;;;;71.60;23.30;;;;;;;-4.93;100.00;101313.11;106718;1286;60012;-78
2023/01/27 21:52:41;;;;;;;83.10;24.20;;;;;;;-4.88;100.00;101314.56;106529;1286;73811;-78
2023/01/27 21:55:09;;;;;;;74.70;24.60;;;;;;;-4.82;100.00;101305.31;106672;1286;74668;-78
2023/01/27 21:57:35;;;;;;;70.70;23.20;;;;;;;-4.81;100.00;101301.10;106698;1286;73570;-78
2023/01/27 22:00:04;;;;;;;69.00;22.10;;;;;;;-4.77;100.00;101296.95;106284;1290;58472;-78
2023/01/27 22:02:29;;;;;;;72.60;24.40;;;;;;;-4.76;100.00;101292.27;106306;1290;61183;-78
2023/01/27 22:04:55;;;;;;;71.70;24.10;;;;;;;-4.75;100.00;101294.52;106196;1290;58262;-78
2023/01/27 22:07:20;;;;;;;75.50;24.00;;;;;;;-4.73;100.00;101288.02;106287;1291;58268;-78
2023/01/27 22:09:46;;;;;;;74.10;24.10;;;;;;;-4.74;100.00;101275.23;106329;1290;58138;-78
2023/01/27 22:12:14;;;;;;;61.70;21.50;;;;;;;-4.79;100.00;101267.48;106199;1291;58127;-78
2023/01/27 22:14:39;;;;;;;72.40;23.60;;;;;;;-4.81;100.00;101261.35;106197;1290;58200;-78
2023/01/27 22:17:05;;;;;;;67.00;23.50;;;;;;;-4.85;100.00;101262.11;106165;1292;58258;-78
2023/01/27 22:19:32;;;;;;;67.60;21.90;;;;;;;-4.87;100.00;101261.20;106314;1291;58196;-78
2023/01/27 22:21:57;;;;;;;89.90;22.40;;;;;;;-4.88;100.00;101257.85;106290;1292;61773;-78
2023/01/27 22:24:23;;;;;;;73.10;23.20;;;;;;;-4.93;100.00;101262.48;106277;1291;58266;-78
2023/01/27 22:26:49;;;;;;;69.20;22.90;;;;;;;-4.97;100.00;101261.09;106142;1292;58597;-78
2023/01/27 22:29:14;;;;;;;71.10;21.80;;;;;;;-5.02;100.00;101259.95;106256;1291;58230;-78
2023/01/27 22:31:40;;;;;;;72.20;22.60;;;;;;;-5.06;100.00;101256.87;106236;1290;58526;-78
2023/01/27 22:34:09;;;;;;;74.50;23.40;;;;;;;-5.11;100.00;101254.13;106295;1290;79427;-78
2023/01/27 22:36:35;;;;;;;80.70;24.60;;;;;;;-5.15;100.00;101247.18;106173;1290;70621;-78
2023/01/27 22:39:01;;;;;;;71.30;22.70;;;;;;;-5.18;100.00;101248.90;106621;1286;58237;-78
2023/01/27 22:41:29;;;;;;;69.20;24.00;;;;;;;-5.20;100.00;101240.86;106725;1286;58203;-78
2023/01/27 22:43:55;;;;;;;81.00;24.90;;;;;;;-5.20;100.00;101238.02;106533;1286;59906;-77
2023/01/27 22:46:21;;;;;;;93.90;25.40;;;;;;;-5.20;100.00;101239.27;106733;1285;58591;-77
2023/01/27 22:48:47;;;;;;;79.50;25.10;;;;;;;-5.22;100.00;101240.44;106517;1286;58419;-78
2023/01/27 22:51:13;;;;;;;74.90;24.20;;;;;;;-5.22;100.00;101240.50;106743;1286;58365;-76
2023/01/27 22:53:38;;;;;;;71.50;23.70;;;;;;;-5.26;100.00;101247.11;106733;1286;58610;-77
2023/01/27 22:56:04;;;;;;;84.50;25.20;;;;;;;-5.29;100.00;101247.36;106750;1286;81310;-78
2023/01/27 22:58:31;;;;;;;79.30;24.70;;;;;;;-5.30;100.00;101247.13;106799;1286;58133;-78
2023/01/27 23:00:57;;;;;;;93.90;28.30;;;;;;;-5.31;100.00;101243.04;106566;1286;73400;-78
2023/01/27 23:03:23;;;;;;;85.50;26.60;;;;;;;-5.32;100.00;101244.90;106711;1286;58166;-78
2023/01/27 23:05:48;;;;;;;78.10;26.80;;;;;;;-5.31;100.00;101241.42;106711;1285;58187;-78
2023/01/27 23:08:15;;;;;;;90.40;28.90;;;;;;;-5.32;100.00;101239.47;106683;1285;58119;-78
2023/01/27 23:10:41;;;;;;;86.50;27.30;;;;;;;-5.35;100.00;101240.60;106735;1286;58056;-78
2023/01/27 23:13:06;;;;;;;85.00;27.30;;;;;;;-5.37;100.00;101247.98;106749;1286;58518;-78
2023/01/27 23:15:32;;;;;;;90.50;28.20;;;;;;;-5.39;100.00;101246.63;106766;1286;58165;-78
2023/01/27 23:17:58;;;;;;;91.00;28.90;;;;;;;-5.40;100.00;101240.72;106720;1286;58135;-77
2023/01/27 23:20:23;;;;;;;87.50;27.90;;;;;;;-5.40;100.00;101233.17;106698;1286;58938;-78
2023/01/27 23:22:49;;;;;;;87.90;28.60;;;;;;;-5.38;100.00;101230.90;106769;1286;58056;-78
2023/01/27 23:25:15;;;;;;;98.50;31.20;;;;;;;-5.40;100.00;101228.44;106746;1286;58074;-78
2023/01/27 23:27:41;;;;;;;101.00;30.00;;;;;;;-5.42;100.00;101223.95;106724;1286;58171;-78
2023/01/27 23:30:09;;;;;;;94.60;29.70;;;;;;;-5.46;100.00;101221.45;106459;1286;58195;-78
2023/01/27 23:32:36;;;;;;;86.90;27.60;;;;;;;-5.49;100.00;101225.58;106744;1286;58073;-78
2023/01/27 23:35:01;;;;;;;83.40;27.90;;;;;;;-5.50;100.00;101229.55;106772;1286;58253;-78
2023/01/27 23:37:27;;;;;;;89.10;26.90;;;;;;;-5.52;100.00;101235.45;106726;1286;58190;-78
2023/01/27 23:39:52;;;;;;;96.50;29.60;;;;;;;-5.53;100.00;101237.70;106752;1286;58170;-78
2023/01/27 23:42:18;;;;;;;90.50;27.00;;;;;;;-5.54;100.00;101243.34;106750;1286;72799;-78
2023/01/27 23:44:44;;;;;;;80.80;25.80;;;;;;;-5.51;100.00;101239.29;106739;1286;58110;-78
2023/01/27 23:47:10;;;;;;;91.80;28.70;;;;;;;-5.50;100.00;101237.00;106707;1286;58592;-78
2023/01/27 23:49:36;;;;;;;88.20;28.40;;;;;;;-5.48;100.00;101238.42;106457;1286;58614;-78
2023/01/27 23:52:01;;;;;;;82.40;27.50;;;;;;;-5.45;100.00;101241.23;106734;1286;58151;-78
2023/01/27 23:54:27;;;;;;;92.10;27.40;;;;;;;-5.43;100.00;101242.73;106867;1285;58188;-78
2023/01/27 23:56:52;;;;;;;79.30;26.30;;;;;;;-5.43;100.00;101240.45;106835;1285;58699;-78
2023/01/27 23:59:18;;;;;;;92.40;26.80;;;;;;;-5.43;100.00;101242.80;106547;1286;58179;-78
